sensor_id;sensor_type;location;lat;lon;timestamp;P1;durP1;ratioP1;P2;durP2;ratioP2
50249;SDS011;36133;42.522;27.456;2022-11-03T00:01:42;31.05;;;13.73;;
50249;SDS011;36133;42.522;27.456;2022-11-03T00:04:11;28.02;;;11.82;;
50249;SDS011;36133;42.522;27.456;2022-11-03T00:06:38;24.15;;;9.48;;
50249;SDS011;36133;42.522;27.456;2022-11-03T00:09:06;24.70;;;9.23;;
50249;SDS011;36133;42.522;27.456;2022-11-03T00:11:33;22.73;;;9.68;;
50249;SDS011;36133;42.522;27.456;2022-11-03T00:14:00;23.42;;;9.57;;
50249;SDS011;36133;42.522;27.456;2022-11-03T00:16:29;16.67;;;8.80;;
50249;SDS011;36133;42.522;27.456;2022-11-03T00:18:55;18.83;;;9.73;;
50249;SDS011;36133;42.522;27.456;2022-11-03T00:21:21;23.15;;;9.35;;
50249;SDS011;36133;42.522;27.456;2022-11-03T00:23:47;24.75;;;10.02;;
50249;SDS011;36133;42.522;27.456;2022-11-03T00:28:40;15.77;;;8.35;;
50249;SDS011;36133;42.522;27.456;2022-11-03T00:31:08;23.65;;;8.90;;
50249;SDS011;36133;42.522;27.456;2022-11-03T00:33:35;22.48;;;8.23;;
50249;SDS011;36133;42.522;27.456;2022-11-03T00:36:02;16.45;;;7.63;;
50249;SDS011;36133;42.522;27.456;2022-11-03T00:38:29;21.83;;;7.70;;
50249;SDS011;36133;42.522;27.456;2022-11-03T00:40:55;20.70;;;8.18;;
50249;SDS011;36133;42.522;27.456;2022-11-03T00:43:22;17.60;;;7.95;;
50249;SDS011;36133;42.522;27.456;2022-11-03T00:45:49;16.42;;;7.60;;
50249;SDS011;36133;42.522;27.456;2022-11-03T00:48:15;18.63;;;8.40;;
50249;SDS011;36133;42.522;27.456;2022-11-03T00:50:53;18.65;;;7.13;;
50249;SDS011;36133;42.522;27.456;2022-11-03T00:53:31;26.55;;;12.48;;
50249;SDS011;36133;42.522;27.456;2022-11-03T00:55:58;31.58;;;14.27;;
50249;SDS011;36133;42.522;27.456;2022-11-03T00:58:24;21.63;;;10.68;;
50249;SDS011;36133;42.522;27.456;2022-11-03T01:00:57;21.15;;;8.05;;
50249;SDS011;36133;42.522;27.456;2022-11-03T01:03:34;22.80;;;7.90;;
50249;SDS011;36133;42.522;27.456;2022-11-03T01:06:01;22.98;;;10.25;;
50249;SDS011;36133;42.522;27.456;2022-11-03T01:08:49;39.53;;;17.15;;
50249;SDS011;36133;42.522;27.456;2022-11-03T01:11:16;21.75;;;8.20;;
50249;SDS011;36133;42.522;27.456;2022-11-03T01:14:02;15.00;;;7.25;;
50249;SDS011;36133;42.522;27.456;2022-11-03T01:16:29;19.17;;;7.57;;
50249;SDS011;36133;42.522;27.456;2022-11-03T01:18:55;17.70;;;6.70;;
50249;SDS011;36133;42.522;27.456;2022-11-03T01:21:21;15.63;;;8.00;;
50249;SDS011;36133;42.522;27.456;2022-11-03T01:23:47;20.08;;;7.97;;
50249;SDS011;36133;42.522;27.456;2022-11-03T01:26:16;16.23;;;8.43;;
50249;SDS011;36133;42.522;27.456;2022-11-03T01:28:43;20.40;;;10.50;;
50249;SDS011;36133;42.522;27.456;2022-11-03T01:31:11;28.60;;;15.07;;
50249;SDS011;36133;42.522;27.456;2022-11-03T01:33:38;47.75;;;18.80;;
50249;SDS011;36133;42.522;27.456;2022-11-03T01:36:04;41.00;;;22.17;;
50249;SDS011;36133;42.522;27.456;2022-11-03T01:38:31;44.90;;;22.95;;
50249;SDS011;36133;42.522;27.456;2022-11-03T01:40:59;49.63;;;23.13;;
50249;SDS011;36133;42.522;27.456;2022-11-03T01:43:25;44.15;;;23.58;;
50249;SDS011;36133;42.522;27.456;2022-11-03T01:45:59;56.08;;;24.17;;
50249;SDS011;36133;42.522;27.456;2022-11-03T01:48:29;44.13;;;22.67;;
50249;SDS011;36133;42.522;27.456;2022-11-03T01:50:57;48.85;;;22.30;;
50249;SDS011;36133;42.522;27.456;2022-11-03T01:53:22;45.58;;;24.85;;
50249;SDS011;36133;42.522;27.456;2022-11-03T01:55:48;42.80;;;24.92;;
50249;SDS011;36133;42.522;27.456;2022-11-03T01:58:19;47.35;;;25.90;;
50249;SDS011;36133;42.522;27.456;2022-11-03T02:00:49;57.33;;;27.98;;
50249;SDS011;36133;42.522;27.456;2022-11-03T02:03:18;47.25;;;27.27;;
50249;SDS011;36133;42.522;27.456;2022-11-03T02:05:46;46.63;;;27.27;;
50249;SDS011;36133;42.522;27.456;2022-11-03T02:08:15;48.30;;;26.45;;
50249;SDS011;36133;42.522;27.456;2022-11-03T02:13:30;52.20;;;28.58;;
50249;SDS011;36133;42.522;27.456;2022-11-03T02:15:56;55.90;;;28.75;;
50249;SDS011;36133;42.522;27.456;2022-11-03T02:18:25;44.45;;;27.73;;
50249;SDS011;36133;42.522;27.456;2022-11-03T02:26:54;47.90;;;28.45;;
50249;SDS011;36133;42.522;27.456;2022-11-03T02:29:21;49.38;;;27.05;;
50249;SDS011;36133;42.522;27.456;2022-11-03T02:31:53;40.72;;;24.58;;
50249;SDS011;36133;42.522;27.456;2022-11-03T02:43:02;58.10;;;35.67;;
50249;SDS011;36133;42.522;27.456;2022-11-03T02:45:34;72.10;;;46.90;;
50249;SDS011;36133;42.522;27.456;2022-11-03T02:51:30;66.00;;;43.17;;
50249;SDS011;36133;42.522;27.456;2022-11-03T02:57:28;88.13;;;53.55;;
50249;SDS011;36133;42.522;27.456;2022-11-03T03:00:01;77.78;;;49.85;;
50249;SDS011;36133;42.522;27.456;2022-11-03T03:08:53;71.10;;;42.40;;
50249;SDS011;36133;42.522;27.456;2022-11-03T03:15:03;59.13;;;36.67;;
50249;SDS011;36133;42.522;27.456;2022-11-03T03:20:25;71.07;;;41.65;;
50249;SDS011;36133;42.522;27.456;2022-11-03T03:23:22;68.93;;;38.22;;
50249;SDS011;36133;42.522;27.456;2022-11-03T03:28:39;59.40;;;38.88;;
50249;SDS011;36133;42.522;27.456;2022-11-03T03:34:53;66.43;;;37.53;;
50249;SDS011;36133;42.522;27.456;2022-11-03T03:37:20;62.42;;;37.17;;
50249;SDS011;36133;42.522;27.456;2022-11-03T03:39:50;62.72;;;38.05;;
50249;SDS011;36133;42.522;27.456;2022-11-03T03:42:19;64.63;;;39.03;;
50249;SDS011;36133;42.522;27.456;2022-11-03T03:44:47;57.90;;;37.33;;
50249;SDS011;36133;42.522;27.456;2022-11-03T03:47:26;57.83;;;37.28;;
50249;SDS011;36133;42.522;27.456;2022-11-03T03:58:34;66.88;;;39.63;;
50249;SDS011;36133;42.522;27.456;2022-11-03T04:04:19;78.95;;;44.70;;
50249;SDS011;36133;42.522;27.456;2022-11-03T04:06:51;65.43;;;39.63;;
50249;SDS011;36133;42.522;27.456;2022-11-03T04:13:09;59.17;;;36.13;;
50249;SDS011;36133;42.522;27.456;2022-11-03T04:19:32;61.20;;;34.13;;
50249;SDS011;36133;42.522;27.456;2022-11-03T04:25:40;68.75;;;34.72;;
50249;SDS011;36133;42.522;27.456;2022-11-03T04:28:11;55.13;;;34.90;;
50249;SDS011;36133;42.522;27.456;2022-11-03T04:30:38;58.42;;;34.72;;
50249;SDS011;36133;42.522;27.456;2022-11-03T04:33:17;61.75;;;35.88;;
50249;SDS011;36133;42.522;27.456;2022-11-03T04:35:44;57.17;;;34.88;;
50249;SDS011;36133;42.522;27.456;2022-11-03T04:40:40;62.13;;;33.80;;
50249;SDS011;36133;42.522;27.456;2022-11-03T04:43:15;56.42;;;33.10;;
50249;SDS011;36133;42.522;27.456;2022-11-03T04:45:43;55.40;;;32.63;;
50249;SDS011;36133;42.522;27.456;2022-11-03T04:48:20;57.53;;;32.83;;
50249;SDS011;36133;42.522;27.456;2022-11-03T04:50:47;58.88;;;32.47;;
50249;SDS011;36133;42.522;27.456;2022-11-03T04:53:16;56.47;;;33.65;;
50249;SDS011;36133;42.522;27.456;2022-11-03T04:55:44;60.00;;;33.63;;
50249;SDS011;36133;42.522;27.456;2022-11-03T04:58:21;65.45;;;34.08;;
50249;SDS011;36133;42.522;27.456;2022-11-03T05:00:55;67.68;;;33.25;;
50249;SDS011;36133;42.522;27.456;2022-11-03T05:03:32;53.15;;;31.25;;
50249;SDS011;36133;42.522;27.456;2022-11-03T05:06:00;62.58;;;31.35;;
50249;SDS011;36133;42.522;27.456;2022-11-03T05:08:34;56.97;;;30.83;;
50249;SDS011;36133;42.522;27.456;2022-11-03T05:10:59;68.35;;;30.75;;
50249;SDS011;36133;42.522;27.456;2022-11-03T05:13:26;62.65;;;32.70;;
50249;SDS011;36133;42.522;27.456;2022-11-03T05:16:13;67.65;;;34.33;;
50249;SDS011;36133;42.522;27.456;2022-11-03T05:21:08;57.33;;;29.83;;
50249;SDS011;36133;42.522;27.456;2022-11-03T05:23:37;55.40;;;28.27;;
50249;SDS011;36133;42.522;27.456;2022-11-03T05:26:06;56.08;;;28.48;;
50249;SDS011;36133;42.522;27.456;2022-11-03T05:28:39;50.58;;;26.70;;
50249;SDS011;36133;42.522;27.456;2022-11-03T05:31:22;56.53;;;26.50;;
50249;SDS011;36133;42.522;27.456;2022-11-03T05:33:50;46.10;;;26.27;;
50249;SDS011;36133;42.522;27.456;2022-11-03T05:36:21;49.90;;;28.15;;
50249;SDS011;36133;42.522;27.456;2022-11-03T05:38:50;56.72;;;28.13;;
50249;SDS011;36133;42.522;27.456;2022-11-03T05:41:22;51.08;;;26.77;;
50249;SDS011;36133;42.522;27.456;2022-11-03T05:43:57;55.20;;;25.73;;
50249;SDS011;36133;42.522;27.456;2022-11-03T05:46:31;46.63;;;23.30;;
50249;SDS011;36133;42.522;27.456;2022-11-03T05:49:00;53.30;;;27.42;;
50249;SDS011;36133;42.522;27.456;2022-11-03T05:51:31;46.75;;;23.40;;
50249;SDS011;36133;42.522;27.456;2022-11-03T05:54:03;70.30;;;25.00;;
50249;SDS011;36133;42.522;27.456;2022-11-03T05:56:32;39.30;;;23.08;;
50249;SDS011;36133;42.522;27.456;2022-11-03T05:58:59;46.60;;;22.90;;
50249;SDS011;36133;42.522;27.456;2022-11-03T06:01:32;43.90;;;22.52;;
50249;SDS011;36133;42.522;27.456;2022-11-03T06:04:13;47.90;;;22.15;;
50249;SDS011;36133;42.522;27.456;2022-11-03T06:06:43;46.50;;;21.52;;
50249;SDS011;36133;42.522;27.456;2022-11-03T06:09:17;37.25;;;21.75;;
50249;SDS011;36133;42.522;27.456;2022-11-03T06:11:45;41.85;;;21.83;;
50249;SDS011;36133;42.522;27.456;2022-11-03T06:14:12;42.78;;;21.17;;
50249;SDS011;36133;42.522;27.456;2022-11-03T06:21:57;42.58;;;18.23;;
50249;SDS011;36133;42.522;27.456;2022-11-03T06:24:30;30.25;;;16.90;;
50249;SDS011;36133;42.522;27.456;2022-11-03T06:26:58;33.70;;;17.58;;
50249;SDS011;36133;42.522;27.456;2022-11-03T06:29:23;33.50;;;15.75;;
50249;SDS011;36133;42.522;27.456;2022-11-03T06:31:49;31.17;;;16.10;;
50249;SDS011;36133;42.522;27.456;2022-11-03T06:34:21;28.52;;;15.75;;
50249;SDS011;36133;42.522;27.456;2022-11-03T06:36:54;29.13;;;15.40;;
50249;SDS011;36133;42.522;27.456;2022-11-03T06:39:22;35.28;;;16.10;;
50249;SDS011;36133;42.522;27.456;2022-11-03T06:41:48;34.97;;;16.48;;
50249;SDS011;36133;42.522;27.456;2022-11-03T06:44:18;24.77;;;13.77;;
50249;SDS011;36133;42.522;27.456;2022-11-03T06:46:56;28.15;;;14.15;;
50249;SDS011;36133;42.522;27.456;2022-11-03T06:49:29;29.30;;;15.10;;
50249;SDS011;36133;42.522;27.456;2022-11-03T06:52:01;27.08;;;14.70;;
50249;SDS011;36133;42.522;27.456;2022-11-03T06:54:39;35.35;;;14.18;;
50249;SDS011;36133;42.522;27.456;2022-11-03T06:57:08;24.23;;;14.43;;
50249;SDS011;36133;42.522;27.456;2022-11-03T06:59:38;50.30;;;20.08;;
50249;SDS011;36133;42.522;27.456;2022-11-03T07:02:04;38.90;;;18.77;;
50249;SDS011;36133;42.522;27.456;2022-11-03T07:05:07;47.75;;;19.73;;
50249;SDS011;36133;42.522;27.456;2022-11-03T07:07:48;52.50;;;20.90;;
50249;SDS011;36133;42.522;27.456;2022-11-03T07:10:20;41.58;;;20.25;;
50249;SDS011;36133;42.522;27.456;2022-11-03T07:12:48;50.90;;;20.65;;
50249;SDS011;36133;42.522;27.456;2022-11-03T07:15:25;45.40;;;17.95;;
50249;SDS011;36133;42.522;27.456;2022-11-03T07:18:15;38.88;;;18.65;;
50249;SDS011;36133;42.522;27.456;2022-11-03T07:20:49;39.67;;;18.48;;
50249;SDS011;36133;42.522;27.456;2022-11-03T07:23:18;37.90;;;17.83;;
50249;SDS011;36133;42.522;27.456;2022-11-03T07:25:51;44.30;;;17.67;;
50249;SDS011;36133;42.522;27.456;2022-11-03T07:28:22;43.13;;;18.42;;
50249;SDS011;36133;42.522;27.456;2022-11-03T07:31:20;40.63;;;18.17;;
50249;SDS011;36133;42.522;27.456;2022-11-03T07:33:55;43.92;;;17.98;;
50249;SDS011;36133;42.522;27.456;2022-11-03T07:36:23;38.88;;;17.73;;
50249;SDS011;36133;42.522;27.456;2022-11-03T07:38:52;38.95;;;16.63;;
50249;SDS011;36133;42.522;27.456;2022-11-03T07:41:22;31.08;;;11.82;;
50249;SDS011;36133;42.522;27.456;2022-11-03T07:43:54;13.50;;;8.73;;
50249;SDS011;36133;42.522;27.456;2022-11-03T07:46:23;18.95;;;8.23;;
50249;SDS011;36133;42.522;27.456;2022-11-03T07:51:24;18.23;;;8.45;;
50249;SDS011;36133;42.522;27.456;2022-11-03T07:57:17;21.58;;;8.45;;
50249;SDS011;36133;42.522;27.456;2022-11-03T07:59:57;14.23;;;8.30;;
50249;SDS011;36133;42.522;27.456;2022-11-03T08:05:23;13.40;;;8.43;;
50249;SDS011;36133;42.522;27.456;2022-11-03T08:07:49;17.95;;;8.80;;
50249;SDS011;36133;42.522;27.456;2022-11-03T08:10:17;14.23;;;7.78;;
50249;SDS011;36133;42.522;27.456;2022-11-03T08:12:46;12.27;;;7.80;;
50249;SDS011;36133;42.522;27.456;2022-11-03T08:15:12;19.25;;;8.48;;
50249;SDS011;36133;42.522;27.456;2022-11-03T08:17:37;12.95;;;7.63;;
50249;SDS011;36133;42.522;27.456;2022-11-03T08:20:06;12.75;;;8.30;;
50249;SDS011;36133;42.522;27.456;2022-11-03T08:22:32;19.08;;;9.18;;
50249;SDS011;36133;42.522;27.456;2022-11-03T08:25:00;16.08;;;8.02;;
50249;SDS011;36133;42.522;27.456;2022-11-03T08:27:29;19.13;;;9.30;;
50249;SDS011;36133;42.522;27.456;2022-11-03T08:30:05;15.10;;;8.32;;
50249;SDS011;36133;42.522;27.456;2022-11-03T08:32:40;15.75;;;7.80;;
50249;SDS011;36133;42.522;27.456;2022-11-03T08:35:14;15.32;;;8.85;;
50249;SDS011;36133;42.522;27.456;2022-11-03T08:37:41;14.45;;;7.70;;
50249;SDS011;36133;42.522;27.456;2022-11-03T08:40:15;13.23;;;8.00;;
50249;SDS011;36133;42.522;27.456;2022-11-03T08:42:44;14.02;;;8.32;;
50249;SDS011;36133;42.522;27.456;2022-11-03T08:45:10;14.90;;;8.60;;
50249;SDS011;36133;42.522;27.456;2022-11-03T08:47:38;16.17;;;8.30;;
50249;SDS011;36133;42.522;27.456;2022-11-03T08:50:04;12.95;;;8.50;;
50249;SDS011;36133;42.522;27.456;2022-11-03T08:52:30;46.67;;;9.65;;
50249;SDS011;36133;42.522;27.456;2022-11-03T08:54:56;15.20;;;8.75;;
50249;SDS011;36133;42.522;27.456;2022-11-03T08:57:21;16.50;;;9.93;;
50249;SDS011;36133;42.522;27.456;2022-11-03T08:59:49;21.95;;;9.13;;
50249;SDS011;36133;42.522;27.456;2022-11-03T09:02:24;19.73;;;9.10;;
50249;SDS011;36133;42.522;27.456;2022-11-03T09:04:49;16.38;;;9.32;;
50249;SDS011;36133;42.522;27.456;2022-11-03T09:07:18;13.38;;;8.80;;
50249;SDS011;36133;42.522;27.456;2022-11-03T09:09:46;21.55;;;9.50;;
50249;SDS011;36133;42.522;27.456;2022-11-03T09:12:12;18.02;;;9.50;;
50249;SDS011;36133;42.522;27.456;2022-11-03T09:14:41;13.68;;;9.38;;
50249;SDS011;36133;42.522;27.456;2022-11-03T09:17:06;21.27;;;10.05;;
50249;SDS011;36133;42.522;27.456;2022-11-03T09:19:32;13.77;;;9.68;;
50249;SDS011;36133;42.522;27.456;2022-11-03T09:22:05;16.92;;;10.32;;
50249;SDS011;36133;42.522;27.456;2022-11-03T09:24:31;19.38;;;10.80;;
50249;SDS011;36133;42.522;27.456;2022-11-03T09:26:57;21.20;;;11.18;;
50249;SDS011;36133;42.522;27.456;2022-11-03T09:29:22;19.23;;;11.48;;
50249;SDS011;36133;42.522;27.456;2022-11-03T09:31:48;23.70;;;11.45;;
50249;SDS011;36133;42.522;27.456;2022-11-03T09:34:14;18.13;;;11.40;;
50249;SDS011;36133;42.522;27.456;2022-11-03T09:36:39;25.90;;;13.02;;
50249;SDS011;36133;42.522;27.456;2022-11-03T09:39:08;20.90;;;12.13;;
50249;SDS011;36133;42.522;27.456;2022-11-03T09:41:37;20.67;;;11.60;;
50249;SDS011;36133;42.522;27.456;2022-11-03T09:44:03;20.60;;;11.07;;
50249;SDS011;36133;42.522;27.456;2022-11-03T09:46:28;21.27;;;11.52;;
50249;SDS011;36133;42.522;27.456;2022-11-03T09:48:55;17.13;;;11.48;;
50249;SDS011;36133;42.522;27.456;2022-11-03T09:51:21;16.67;;;10.32;;
50249;SDS011;36133;42.522;27.456;2022-11-03T09:53:52;16.98;;;10.68;;
50249;SDS011;36133;42.522;27.456;2022-11-03T09:56:22;16.52;;;11.05;;
50249;SDS011;36133;42.522;27.456;2022-11-03T09:58:50;16.13;;;10.70;;
50249;SDS011;36133;42.522;27.456;2022-11-03T10:01:15;17.70;;;10.40;;
50249;SDS011;36133;42.522;27.456;2022-11-03T10:03:44;18.10;;;11.23;;
50249;SDS011;36133;42.522;27.456;2022-11-03T10:06:12;16.20;;;10.38;;
50249;SDS011;36133;42.522;27.456;2022-11-03T10:08:47;17.50;;;10.43;;
50249;SDS011;36133;42.522;27.456;2022-11-03T10:11:13;25.15;;;11.25;;
50249;SDS011;36133;42.522;27.456;2022-11-03T10:13:44;18.63;;;10.70;;
50249;SDS011;36133;42.522;27.456;2022-11-03T10:16:17;21.38;;;11.32;;
50249;SDS011;36133;42.522;27.456;2022-11-03T10:18:46;17.00;;;10.63;;
50249;SDS011;36133;42.522;27.456;2022-11-03T10:21:46;16.05;;;10.73;;
50249;SDS011;36133;42.522;27.456;2022-11-03T10:24:12;18.52;;;10.55;;
50249;SDS011;36133;42.522;27.456;2022-11-03T10:26:48;17.88;;;10.52;;
50249;SDS011;36133;42.522;27.456;2022-11-03T10:29:18;19.38;;;10.65;;
50249;SDS011;36133;42.522;27.456;2022-11-03T10:31:50;18.10;;;10.77;;
50249;SDS011;36133;42.522;27.456;2022-11-03T10:34:36;19.20;;;11.80;;
50249;SDS011;36133;42.522;27.456;2022-11-03T10:39:49;12.57;;;10.02;;
50249;SDS011;36133;42.522;27.456;2022-11-03T10:44:51;14.70;;;10.48;;
50249;SDS011;36133;42.522;27.456;2022-11-03T10:47:31;18.27;;;10.98;;
50249;SDS011;36133;42.522;27.456;2022-11-03T10:49:58;14.77;;;10.70;;
50249;SDS011;36133;42.522;27.456;2022-11-03T10:52:44;22.65;;;12.10;;
50249;SDS011;36133;42.522;27.456;2022-11-03T10:55:10;16.27;;;11.38;;
50249;SDS011;36133;42.522;27.456;2022-11-03T10:57:35;20.42;;;12.02;;
50249;SDS011;36133;42.522;27.456;2022-11-03T11:00:01;17.63;;;10.98;;
50249;SDS011;36133;42.522;27.456;2022-11-03T11:02:29;17.10;;;10.20;;
50249;SDS011;36133;42.522;27.456;2022-11-03T11:04:57;16.98;;;10.70;;
50249;SDS011;36133;42.522;27.456;2022-11-03T11:07:32;16.33;;;10.45;;
50249;SDS011;36133;42.522;27.456;2022-11-03T11:10:19;15.65;;;9.75;;
50249;SDS011;36133;42.522;27.456;2022-11-03T11:16:07;48.58;;;12.35;;
50249;SDS011;36133;42.522;27.456;2022-11-03T11:22:51;16.83;;;12.00;;
50249;SDS011;36133;42.522;27.456;2022-11-03T11:25:17;15.10;;;10.18;;
50249;SDS011;36133;42.522;27.456;2022-11-03T11:32:55;19.95;;;11.15;;
50249;SDS011;36133;42.522;27.456;2022-11-03T11:41:20;18.40;;;12.07;;
50249;SDS011;36133;42.522;27.456;2022-11-03T11:50:21;19.50;;;11.73;;
50249;SDS011;36133;42.522;27.456;2022-11-03T11:55:30;19.85;;;11.70;;
50249;SDS011;36133;42.522;27.456;2022-11-03T11:57:59;21.42;;;12.35;;
50249;SDS011;36133;42.522;27.456;2022-11-03T12:00:33;19.70;;;11.85;;
50249;SDS011;36133;42.522;27.456;2022-11-03T12:03:00;18.30;;;12.05;;
50249;SDS011;36133;42.522;27.456;2022-11-03T12:05:34;54.22;;;12.48;;
50249;SDS011;36133;42.522;27.456;2022-11-03T12:08:19;19.65;;;12.07;;
50249;SDS011;36133;42.522;27.456;2022-11-03T12:14:18;44.67;;;13.30;;
50249;SDS011;36133;42.522;27.456;2022-11-03T12:19:44;19.45;;;11.80;;
50249;SDS011;36133;42.522;27.456;2022-11-03T12:27:17;19.05;;;10.68;;
50249;SDS011;36133;42.522;27.456;2022-11-03T12:29:55;16.85;;;10.93;;
50249;SDS011;36133;42.522;27.456;2022-11-03T12:32:25;15.55;;;11.05;;
50249;SDS011;36133;42.522;27.456;2022-11-03T12:34:57;25.55;;;11.48;;
50249;SDS011;36133;42.522;27.456;2022-11-03T12:37:22;20.13;;;11.15;;
50249;SDS011;36133;42.522;27.456;2022-11-03T12:39:48;15.93;;;10.85;;
50249;SDS011;36133;42.522;27.456;2022-11-03T12:42:14;17.05;;;10.68;;
50249;SDS011;36133;42.522;27.456;2022-11-03T12:44:39;19.35;;;11.55;;
50249;SDS011;36133;42.522;27.456;2022-11-03T12:47:05;16.20;;;11.43;;
50249;SDS011;36133;42.522;27.456;2022-11-03T12:49:31;26.25;;;11.68;;
50249;SDS011;36133;42.522;27.456;2022-11-03T12:51:56;15.13;;;10.88;;
50249;SDS011;36133;42.522;27.456;2022-11-03T12:54:30;16.08;;;10.38;;
50249;SDS011;36133;42.522;27.456;2022-11-03T12:56:57;17.02;;;10.75;;
50249;SDS011;36133;42.522;27.456;2022-11-03T12:59:23;17.65;;;10.48;;
50249;SDS011;36133;42.522;27.456;2022-11-03T13:01:48;20.85;;;11.00;;
50249;SDS011;36133;42.522;27.456;2022-11-03T13:04:14;18.35;;;11.38;;
50249;SDS011;36133;42.522;27.456;2022-11-03T13:06:40;24.05;;;11.68;;
50249;SDS011;36133;42.522;27.456;2022-11-03T13:09:11;18.20;;;11.32;;
50249;SDS011;36133;42.522;27.456;2022-11-03T13:11:37;33.80;;;12.30;;
50249;SDS011;36133;42.522;27.456;2022-11-03T13:14:23;18.17;;;10.70;;
50249;SDS011;36133;42.522;27.456;2022-11-03T13:16:50;15.82;;;11.88;;
50249;SDS011;36133;42.522;27.456;2022-11-03T13:19:16;18.88;;;10.88;;
50249;SDS011;36133;42.522;27.456;2022-11-03T13:21:48;16.38;;;11.30;;
50249;SDS011;36133;42.522;27.456;2022-11-03T13:24:14;19.40;;;11.75;;
50249;SDS011;36133;42.522;27.456;2022-11-03T13:26:39;17.17;;;10.75;;
50249;SDS011;36133;42.522;27.456;2022-11-03T13:29:05;18.15;;;12.38;;
50249;SDS011;36133;42.522;27.456;2022-11-03T13:31:30;19.25;;;12.50;;
50249;SDS011;36133;42.522;27.456;2022-11-03T13:33:59;20.65;;;12.38;;
50249;SDS011;36133;42.522;27.456;2022-11-03T13:36:25;22.10;;;12.35;;
50249;SDS011;36133;42.522;27.456;2022-11-03T13:38:51;24.20;;;13.13;;
50249;SDS011;36133;42.522;27.456;2022-11-03T13:41:16;22.02;;;12.48;;
50249;SDS011;36133;42.522;27.456;2022-11-03T13:43:42;34.45;;;13.00;;
50249;SDS011;36133;42.522;27.456;2022-11-03T13:46:13;18.15;;;12.90;;
50249;SDS011;36133;42.522;27.456;2022-11-03T13:48:41;18.52;;;12.15;;
50249;SDS011;36133;42.522;27.456;2022-11-03T13:51:10;24.58;;;14.20;;
50249;SDS011;36133;42.522;27.456;2022-11-03T13:53:37;19.10;;;12.77;;
50249;SDS011;36133;42.522;27.456;2022-11-03T13:56:02;23.05;;;13.23;;
50249;SDS011;36133;42.522;27.456;2022-11-03T13:58:28;19.98;;;13.15;;
50249;SDS011;36133;42.522;27.456;2022-11-03T14:00:56;18.15;;;12.45;;
50249;SDS011;36133;42.522;27.456;2022-11-03T14:03:31;25.10;;;13.43;;
50249;SDS011;36133;42.522;27.456;2022-11-03T14:05:57;24.50;;;13.43;;
50249;SDS011;36133;42.522;27.456;2022-11-03T14:08:22;23.60;;;12.93;;
50249;SDS011;36133;42.522;27.456;2022-11-03T14:17:52;24.70;;;14.80;;
50249;SDS011;36133;42.522;27.456;2022-11-03T14:20:29;25.90;;;14.55;;
50249;SDS011;36133;42.522;27.456;2022-11-03T14:30:26;30.65;;;16.60;;
50249;SDS011;36133;42.522;27.456;2022-11-03T14:37:13;21.95;;;14.70;;
50249;SDS011;36133;42.522;27.456;2022-11-03T14:47:04;21.33;;;13.60;;
50249;SDS011;36133;42.522;27.456;2022-11-03T14:49:31;22.35;;;14.00;;
50249;SDS011;36133;42.522;27.456;2022-11-03T14:51:59;25.60;;;16.45;;
50249;SDS011;36133;42.522;27.456;2022-11-03T14:54:28;25.08;;;15.85;;
50249;SDS011;36133;42.522;27.456;2022-11-03T14:56:55;20.98;;;14.38;;
50249;SDS011;36133;42.522;27.456;2022-11-03T14:59:21;21.73;;;14.05;;
50249;SDS011;36133;42.522;27.456;2022-11-03T15:01:47;25.25;;;14.25;;
50249;SDS011;36133;42.522;27.456;2022-11-03T15:04:16;31.38;;;17.27;;
50249;SDS011;36133;42.522;27.456;2022-11-03T15:06:42;24.65;;;16.00;;
50249;SDS011;36133;42.522;27.456;2022-11-03T15:09:09;29.02;;;16.27;;
50249;SDS011;36133;42.522;27.456;2022-11-03T15:11:38;25.13;;;14.75;;
50249;SDS011;36133;42.522;27.456;2022-11-03T15:14:04;24.42;;;15.63;;
50249;SDS011;36133;42.522;27.456;2022-11-03T15:16:30;24.95;;;15.60;;
50249;SDS011;36133;42.522;27.456;2022-11-03T15:18:56;23.25;;;14.95;;
50249;SDS011;36133;42.522;27.456;2022-11-03T15:21:23;28.80;;;15.00;;
50249;SDS011;36133;42.522;27.456;2022-11-03T15:23:49;26.92;;;15.43;;
50249;SDS011;36133;42.522;27.456;2022-11-03T15:26:14;24.80;;;14.93;;
50249;SDS011;36133;42.522;27.456;2022-11-03T15:28:45;26.85;;;16.13;;
50249;SDS011;36133;42.522;27.456;2022-11-03T15:31:11;25.77;;;17.08;;
50249;SDS011;36133;42.522;27.456;2022-11-03T15:33:37;31.27;;;16.05;;
50249;SDS011;36133;42.522;27.456;2022-11-03T15:36:08;26.27;;;16.48;;
50249;SDS011;36133;42.522;27.456;2022-11-03T15:38:34;27.40;;;15.88;;
50249;SDS011;36133;42.522;27.456;2022-11-03T15:40:59;27.42;;;16.08;;
50249;SDS011;36133;42.522;27.456;2022-11-03T15:43:41;24.58;;;15.48;;
50249;SDS011;36133;42.522;27.456;2022-11-03T15:46:14;27.77;;;16.35;;
50249;SDS011;36133;42.522;27.456;2022-11-03T15:48:41;43.30;;;17.42;;
50249;SDS011;36133;42.522;27.456;2022-11-03T15:51:12;29.90;;;16.85;;
50249;SDS011;36133;42.522;27.456;2022-11-03T15:56:11;29.23;;;17.45;;
50249;SDS011;36133;42.522;27.456;2022-11-03T15:58:37;29.33;;;16.63;;
50249;SDS011;36133;42.522;27.456;2022-11-03T16:01:03;24.58;;;16.80;;
50249;SDS011;36133;42.522;27.456;2022-11-03T16:03:29;26.38;;;17.45;;
50249;SDS011;36133;42.522;27.456;2022-11-03T16:05:55;32.08;;;18.23;;
50249;SDS011;36133;42.522;27.456;2022-11-03T16:08:21;27.85;;;17.73;;
50249;SDS011;36133;42.522;27.456;2022-11-03T16:10:47;27.83;;;17.10;;
50249;SDS011;36133;42.522;27.456;2022-11-03T16:13:22;28.60;;;17.42;;
50249;SDS011;36133;42.522;27.456;2022-11-03T16:15:50;35.10;;;20.98;;
50249;SDS011;36133;42.522;27.456;2022-11-03T16:18:18;25.10;;;16.15;;
50249;SDS011;36133;42.522;27.456;2022-11-03T16:20:47;29.13;;;19.27;;
50249;SDS011;36133;42.522;27.456;2022-11-03T16:23:12;28.50;;;17.73;;
50249;SDS011;36133;42.522;27.456;2022-11-03T16:25:47;26.13;;;16.30;;
50249;SDS011;36133;42.522;27.456;2022-11-03T16:28:22;33.40;;;19.90;;
50249;SDS011;36133;42.522;27.456;2022-11-03T16:30:53;45.42;;;19.00;;
50249;SDS011;36133;42.522;27.456;2022-11-03T16:33:19;37.65;;;19.40;;
50249;SDS011;36133;42.522;27.456;2022-11-03T16:35:44;77.63;;;20.50;;
50249;SDS011;36133;42.522;27.456;2022-11-03T16:38:10;41.47;;;18.13;;
50249;SDS011;36133;42.522;27.456;2022-11-03T16:40:39;39.35;;;19.60;;
50249;SDS011;36133;42.522;27.456;2022-11-03T16:43:07;35.05;;;20.67;;
50249;SDS011;36133;42.522;27.456;2022-11-03T16:45:33;42.90;;;20.90;;
50249;SDS011;36133;42.522;27.456;2022-11-03T16:47:59;50.17;;;19.42;;
50249;SDS011;36133;42.522;27.456;2022-11-03T16:50:24;44.83;;;19.20;;
50249;SDS011;36133;42.522;27.456;2022-11-03T16:52:53;34.95;;;19.35;;
50249;SDS011;36133;42.522;27.456;2022-11-03T16:55:19;37.22;;;19.55;;
50249;SDS011;36133;42.522;27.456;2022-11-03T16:57:45;40.08;;;20.65;;
50249;SDS011;36133;42.522;27.456;2022-11-03T17:00:12;38.70;;;21.02;;
50249;SDS011;36133;42.522;27.456;2022-11-03T17:02:42;30.48;;;19.83;;
50249;SDS011;36133;42.522;27.456;2022-11-03T17:05:09;35.08;;;20.52;;
50249;SDS011;36133;42.522;27.456;2022-11-03T17:07:39;37.42;;;20.73;;